Time;durP1;ratioP1;P1;durP2;ratioP2;P2;SDS_P1;SDS_P2;PMS_P1;PMS_P2;Temp;Humidity;BMP_temperature;BMP_pressure;BME280_temperature;BME280_humidity;BME280_pressure;Samples;Min_cycle;Max_cycle;Signal;HPM_P1;HPM_P2
2021/01/15 00:01:23;;;;;;;12.37;7.90;;;;;-0.10;101561.00;;;;10413280;28;20203;-77
2021/01/15 00:06:25;;;;;;;11.10;8.07;;;;;-0.10;101576.00;;;;10415105;28;20675;-77
2021/01/15 00:11:31;;;;;;;12.00;8.67;;;;;-0.20;101585.00;;;;10423361;28;20243;-78
2021/01/15 00:16:33;;;;;;;13.37;9.40;;;;;-0.20;101594.00;;;;10406613;28;20191;-78
2021/01/15 00:21:35;;;;;;;14.80;8.70;;;;;-0.20;101603.00;;;;10428608;28;20190;-77
2021/01/15 00:26:40;;;;;;;14.27;9.33;;;;;-0.20;101615.00;;;;10416887;28;20198;-77
2021/01/15 00:31:44;;;;;;;15.40;9.30;;;;;-0.20;101612.00;;;;10400063;28;20310;-76
2021/01/15 00:36:47;;;;;;;18.00;9.23;;;;;-0.20;101628.00;;;;10386751;28;20264;-77
2021/01/15 00:41:48;;;;;;;13.77;9.10;;;;;-0.20;101635.00;;;;10403929;28;20187;-77
2021/01/15 00:46:54;;;;;;;20.47;10.97;;;;;-0.30;101630.00;;;;10405159;28;20215;-77
2021/01/15 00:51:56;;;;;;;15.37;10.30;;;;;-0.30;101650.00;;;;10387301;28;20211;-77
2021/01/15 00:57:04;;;;;;;16.80;10.50;;;;;-0.30;101655.00;;;;10386671;28;20191;-77
2021/01/15 01:02:07;;;;;;;14.43;10.10;;;;;-0.30;101663.00;;;;10419617;28;20203;-77
2021/01/15 01:07:11;;;;;;;15.70;10.00;;;;;-0.30;101675.00;;;;10385888;28;20934;-77
2021/01/15 01:12:12;;;;;;;19.03;10.80;;;;;-0.30;101684.00;;;;10385438;28;20249;-77
2021/01/15 01:17:13;;;;;;;17.40;10.77;;;;;-0.40;101686.00;;;;10423802;28;20213;-77
2021/01/15 01:22:14;;;;;;;16.33;10.90;;;;;-0.40;101682.00;;;;10443059;28;20269;-77
2021/01/15 01:27:16;;;;;;;19.40;11.27;;;;;-0.40;101692.00;;;;10400950;28;20202;-77
2021/01/15 01:32:17;;;;;;;14.67;9.97;;;;;-0.40;101705.00;;;;10419190;28;20205;-77
2021/01/15 01:37:19;;;;;;;15.77;9.07;;;;;-0.40;101709.00;;;;10384630;28;20199;-77
2021/01/15 01:42:20;;;;;;;14.20;10.03;;;;;-0.40;101721.00;;;;10383803;28;20278;-77
2021/01/15 01:47:22;;;;;;;14.97;9.20;;;;;-0.40;101736.00;;;;10425212;28;20194;-77
2021/01/15 01:52:24;;;;;;;15.13;10.17;;;;;-0.40;101748.00;;;;10424857;28;20573;-77
2021/01/15 01:57:26;;;;;;;17.90;10.23;;;;;-0.40;101754.00;;;;10425063;28;20226;-77
2021/01/15 02:02:27;;;;;;;15.57;8.83;;;;;-0.40;101761.00;;;;10458535;28;20276;-77
2021/01/15 02:07:28;;;;;;;12.23;9.60;;;;;-0.40;101767.00;;;;10458212;28;20684;-77
2021/01/15 02:12:53;;;;;;;15.10;9.97;;;;;-0.50;101771.00;;;;10441115;28;20206;-77
2021/01/15 02:18:06;;;;;;;13.43;9.00;;;;;-0.50;101778.00;;;;10415625;28;20226;-77
2021/01/15 02:23:26;;;;;;;12.77;9.10;;;;;-0.50;101789.00;;;;10367439;28;20610;-77
2021/01/15 02:29:08;;;;;;;15.60;10.00;;;;;-0.50;101790.00;;;;10420542;28;20256;-77
2021/01/15 02:34:34;;;;;;;14.67;11.10;;;;;-0.60;101788.00;;;;10407005;28;20296;-77
2021/01/15 02:39:59;;;;;;;14.70;10.13;;;;;-0.60;101797.00;;;;10399095;28;20226;-77
2021/01/15 02:45:09;;;;;;;17.27;11.43;;;;;-0.60;101801.00;;;;10403047;28;20722;-77
2021/01/15 02:50:11;;;;;;;19.53;11.90;;;;;-0.60;101813.00;;;;10439723;28;20222;-77
2021/01/15 02:55:14;;;;;;;22.17;12.13;;;;;-0.70;101827.00;;;;10418699;28;20203;-77
2021/01/15 03:00:19;;;;;;;21.63;14.17;;;;;-0.70;101823.00;;;;10400095;28;20211;-77
2021/01/15 03:05:47;;;;;;;24.37;14.77;;;;;-0.70;101837.00;;;;10421887;28;20194;-77
2021/01/15 03:10:50;;;;;;;25.83;16.20;;;;;-0.70;101840.00;;;;10400209;28;20194;-77
2021/01/15 03:15:52;;;;;;;25.93;16.00;;;;;-0.70;101852.00;;;;10455742;28;20198;-77
2021/01/15 03:20:54;;;;;;;25.73;15.93;;;;;-0.60;101861.00;;;;10439045;28;20248;-77
2021/01/15 03:25:55;;;;;;;28.30;17.30;;;;;-0.60;101869.00;;;;10447799;28;20228;-77
2021/01/15 03:30:57;;;;;;;26.53;17.30;;;;;-0.60;101874.00;;;;10455848;28;20256;-77
2021/01/15 03:35:59;;;;;;;28.60;17.23;;;;;-0.60;101875.00;;;;10438977;28;20194;-77
2021/01/15 03:41:02;;;;;;;30.07;18.20;;;;;-0.60;101878.00;;;;10438173;28;20277;-77
2021/01/15 03:46:03;;;;;;;28.23;17.07;;;;;-0.60;101886.00;;;;10422026;28;20685;-77
2021/01/15 03:51:06;;;;;;;26.00;17.37;;;;;-0.60;101899.00;;;;10455404;28;20203;-77
2021/01/15 03:56:07;;;;;;;23.97;16.30;;;;;-0.70;101908.00;;;;10440549;28;20190;-77
2021/01/15 04:01:08;;;;;;;26.00;16.97;;;;;-0.70;101918.00;;;;10412562;28;20199;-77
2021/01/15 04:06:10;;;;;;;24.93;16.90;;;;;-0.70;101914.00;;;;10400939;28;20201;-77
2021/01/15 04:11:11;;;;;;;25.57;15.77;;;;;-0.70;101916.00;;;;10387717;28;20238;-77
2021/01/15 04:16:13;;;;;;;25.10;14.67;;;;;-0.70;101925.00;;;;10418488;28;20210;-77
2021/01/15 04:21:16;;;;;;;22.67;14.37;;;;;-0.70;101934.00;;;;10445484;28;20202;-77
2021/01/15 04:26:21;;;;;;;23.93;13.57;;;;;-0.60;101936.00;;;;10412562;28;20190;-77
2021/01/15 04:31:22;;;;;;;19.37;13.60;;;;;-0.60;101941.00;;;;10382737;28;20297;-77
2021/01/15 04:36:25;;;;;;;22.83;13.83;;;;;-0.60;101948.00;;;;10428169;28;20198;-77
2021/01/15 04:41:30;;;;;;;23.47;13.37;;;;;-0.50;101952.00;;;;10428399;28;20796;-77
2021/01/15 04:46:33;;;;;;;23.87;13.67;;;;;-0.50;101973.00;;;;10411787;28;20218;-77
2021/01/15 04:51:37;;;;;;;22.77;13.00;;;;;-0.50;101971.00;;;;10403534;28;20203;-77
2021/01/15 04:56:39;;;;;;;21.93;12.43;;;;;-0.50;101978.00;;;;10386584;28;20245;-77
2021/01/15 05:01:43;;;;;;;21.30;13.03;;;;;-0.50;101983.00;;;;10408345;28;20190;-77
2021/01/15 05:06:53;;;;;;;17.57;11.03;;;;;-0.40;101982.00;;;;10443678;28;20711;-77
2021/01/15 05:12:04;;;;;;;22.57;13.17;;;;;-0.40;101997.00;;;;10441460;28;20210;-77
2021/01/15 05:17:06;;;;;;;20.43;12.87;;;;;-0.30;102006.00;;;;10384829;28;20708;-77
2021/01/15 05:22:09;;;;;;;18.83;11.80;;;;;-0.30;102006.00;;;;10394635;28;20190;-77
2021/01/15 05:32:31;;;;;;;22.07;12.70;;;;;-0.30;102017.00;;;;10442389;28;20236;-77
2021/01/15 05:37:34;;;;;;;19.97;12.07;;;;;-0.20;102032.00;;;;10442697;28;20190;-77
2021/01/15 05:42:53;;;;;;;20.83;12.20;;;;;-0.20;102026.00;;;;10402078;28;20257;-77
2021/01/15 05:47:54;;;;;;;20.60;12.27;;;;;-0.20;102030.00;;;;10425115;28;20642;-77
2021/01/15 05:52:57;;;;;;;19.07;12.10;;;;;-0.20;102044.00;;;;10458933;28;20241;-77
2021/01/15 05:58:09;;;;;;;21.23;12.03;;;;;-0.20;102046.00;;;;10431534;28;20197;-77
2021/01/15 06:03:13;;;;;;;18.33;11.57;;;;;-0.20;102055.00;;;;10408196;28;20198;-77
2021/01/15 06:08:16;;;;;;;19.37;11.80;;;;;-0.20;102062.00;;;;10441692;28;20193;-77
2021/01/15 06:13:37;;;;;;;19.27;11.47;;;;;-0.20;102072.00;;;;10457327;28;20681;-77
2021/01/15 06:18:55;;;;;;;17.30;11.70;;;;;-0.20;102085.00;;;;10386915;28;20198;-77
2021/01/15 06:24:09;;;;;;;19.17;11.50;;;;;-0.20;102096.00;;;;10418033;28;20233;-77
2021/01/15 06:29:12;;;;;;;20.40;11.87;;;;;-0.20;102099.00;;;;10408742;28;20550;-77
2021/01/15 06:34:15;;;;;;;17.70;11.97;;;;;-0.20;102101.00;;;;10399178;28;20665;-77
2021/01/15 06:39:17;;;;;;;21.10;12.40;;;;;-0.10;102109.00;;;;10439822;28;20653;-77
2021/01/15 06:44:20;;;;;;;17.57;12.23;;;;;-0.10;102111.00;;;;10441575;28;20745;-77
2021/01/15 06:49:31;;;;;;;19.47;11.80;;;;;-0.10;102119.00;;;;10382437;28;20194;-77
2021/01/15 06:54:45;;;;;;;18.13;11.20;;;;;0.00;102139.00;;;;10381796;28;20257;-77
2021/01/15 06:59:51;;;;;;;16.57;11.53;;;;;0.00;102144.00;;;;10398418;28;20199;-77
2021/01/15 07:05:00;;;;;;;17.43;11.33;;;;;0.00;102146.00;;;;10398116;28;20214;-77
2021/01/15 07:10:04;;;;;;;16.80;10.97;;;;;0.00;102138.00;;;;10399037;28;20194;-77
2021/01/15 07:15:12;;;;;;;18.30;11.53;;;;;0.10;102162.00;;;;10418773;28;20335;-77
2021/01/15 07:20:17;;;;;;;17.20;11.17;;;;;0.10;102170.00;;;;10452788;28;20229;-77
2021/01/15 07:25:21;;;;;;;17.70;11.33;;;;;0.10;102178.00;;;;10398327;28;20218;-77
2021/01/15 07:30:29;;;;;;;15.83;11.10;;;;;0.10;102179.00;;;;10397513;28;20202;-77
2021/01/15 07:35:36;;;;;;;16.37;10.37;;;;;0.10;102185.00;;;;10421193;28;20586;-77
2021/01/15 07:40:38;;;;;;;15.03;10.70;;;;;0.10;102192.00;;;;10425196;28;20186;-77
2021/01/15 07:45:41;;;;;;;16.87;11.20;;;;;0.20;102204.00;;;;10463702;28;20213;-77
2021/01/15 07:50:45;;;;;;;19.40;11.50;;;;;0.20;102216.00;;;;10391225;28;20195;-77
2021/01/15 07:56:02;;;;;;;18.57;12.70;;;;;0.20;102220.00;;;;10421717;28;20211;-77
2021/01/15 08:01:12;;;;;;;17.87;12.20;;;;;0.20;102223.00;;;;10404705;28;20229;-77
2021/01/15 08:06:16;;;;;;;17.47;11.87;;;;;0.30;102229.00;;;;10388461;28;20662;-77
2021/01/15 08:11:18;;;;;;;15.30;10.47;;;;;0.40;102233.00;;;;10405625;28;20539;-77
2021/01/15 08:16:19;;;;;;;18.43;11.50;;;;;0.40;102241.00;;;;10451850;28;20611;-77
2021/01/15 08:21:21;;;;;;;16.47;11.47;;;;;0.40;102259.00;;;;10412755;28;20274;-78
2021/01/15 08:26:47;;;;;;;18.50;11.97;;;;;0.50;102273.00;;;;10406789;28;20250;-78
2021/01/15 08:31:50;;;;;;;16.67;12.17;;;;;0.50;102277.00;;;;10407459;28;20265;-78
2021/01/15 08:36:59;;;;;;;17.90;12.17;;;;;0.60;102275.00;;;;10427615;28;20194;-77
2021/01/15 08:42:03;;;;;;;21.37;11.90;;;;;0.60;102289.00;;;;10375393;28;20191;-78
2021/01/15 08:47:10;;;;;;;16.20;10.97;;;;;0.70;102288.00;;;;10428073;28;20604;-78
2021/01/15 08:52:14;;;;;;;17.33;11.47;;;;;0.80;102306.00;;;;10465031;28;20214;-78
2021/01/15 08:57:19;;;;;;;22.03;11.30;;;;;0.80;102300.00;;;;10405813;28;20234;-78
2021/01/15 09:02:21;;;;;;;17.40;12.33;;;;;0.80;102317.00;;;;10387225;28;20202;-78
2021/01/15 09:07:25;;;;;;;16.30;11.10;;;;;0.90;102323.00;;;;10430637;28;20225;-78
2021/01/15 09:12:27;;;;;;;16.00;11.03;;;;;0.90;102325.00;;;;10381480;28;20211;-78
2021/01/15 09:17:29;;;;;;;17.10;10.97;;;;;1.00;102334.00;;;;10422579;28;20238;-78
2021/01/15 09:22:30;;;;;;;16.13;12.10;;;;;1.10;102352.00;;;;10438671;28;20586;-78
2021/01/15 09:27:32;;;;;;;15.00;11.50;;;;;1.20;102356.00;;;;10428952;28;20206;-78
2021/01/15 09:32:33;;;;;;;17.60;11.00;;;;;1.30;102359.00;;;;10405968;28;20670;-78
2021/01/15 09:37:34;;;;;;;17.27;11.70;;;;;1.40;102373.00;;;;10443680;28;20233;-78
2021/01/15 09:42:36;;;;;;;16.30;11.57;;;;;1.60;102372.00;;;;10423401;28;20652;-77
2021/01/15 09:47:42;;;;;;;16.67;11.93;;;;;1.70;102369.00;;;;10428993;28;20789;-77
2021/01/15 09:52:52;;;;;;;17.13;12.43;;;;;1.90;102388.00;;;;10439127;28;20225;-78
2021/01/15 09:57:53;;;;;;;18.97;11.60;;;;;2.00;102392.00;;;;10448454;28;20301;-78
2021/01/15 10:02:55;;;;;;;18.10;11.20;;;;;2.10;102402.00;;;;10425376;28;20205;-78
2021/01/15 10:07:56;;;;;;;17.20;11.50;;;;;2.30;102419.00;;;;10459725;28;20581;-78
2021/01/15 10:12:58;;;;;;;15.13;11.60;;;;;2.50;102414.00;;;;10448072;28;20207;-78
2021/01/15 10:17:59;;;;;;;15.07;11.23;;;;;2.50;102416.00;;;;10425695;28;20201;-78
2021/01/15 10:23:03;;;;;;;20.27;11.80;;;;;2.40;102427.00;;;;10422228;28;20186;-78
2021/01/15 10:28:04;;;;;;;16.17;11.40;;;;;2.50;102428.00;;;;10401367;28;20198;-78
2021/01/15 10:33:05;;;;;;;17.30;11.93;;;;;2.60;102430.00;;;;10420466;28;20605;-78
2021/01/15 10:38:07;;;;;;;15.70;11.53;;;;;2.60;102434.00;;;;10416640;28;20199;-78
2021/01/15 10:43:08;;;;;;;17.70;11.47;;;;;2.70;102435.00;;;;10427611;28;20226;-77
2021/01/15 10:48:10;;;;;;;19.10;11.67;;;;;2.70;102446.00;;;;10414439;28;20249;-78
2021/01/15 10:53:11;;;;;;;19.13;12.63;;;;;2.70;102456.00;;;;10408882;28;20300;-78
2021/01/15 10:58:16;;;;;;;18.37;12.10;;;;;2.70;102452.00;;;;10418609;28;20197;-78
2021/01/15 11:03:17;;;;;;;16.33;11.83;;;;;2.70;102451.00;;;;10429401;28;20202;-77
2021/01/15 11:08:18;;;;;;;15.47;11.87;;;;;2.70;102457.00;;;;10411152;28;20201;-78
2021/01/15 11:13:19;;;;;;;17.90;12.03;;;;;2.70;102458.00;;;;10412580;28;20211;-78
2021/01/15 11:18:21;;;;;;;18.40;12.63;;;;;2.70;102452.00;;;;10394375;28;20229;-78
2021/01/15 11:23:22;;;;;;;18.30;12.87;;;;;2.60;102453.00;;;;10446852;28;20198;-78
2021/01/15 11:28:23;;;;;;;21.97;13.30;;;;;2.60;102456.00;;;;10439582;28;20217;-78
2021/01/15 11:33:25;;;;;;;16.43;11.93;;;;;2.60;102461.00;;;;10399985;28;20233;-78
2021/01/15 11:38:27;;;;;;;21.23;12.47;;;;;2.60;102458.00;;;;10409073;28;20713;-78
2021/01/15 11:43:33;;;;;;;18.97;12.77;;;;;2.60;102467.00;;;;10437275;28;20744;-78
2021/01/15 11:48:35;;;;;;;20.50;12.87;;;;;2.60;102462.00;;;;10427959;28;20264;-79
2021/01/15 11:53:38;;;;;;;19.57;13.20;;;;;2.60;102456.00;;;;10436993;28;20293;-77
2021/01/15 11:58:40;;;;;;;21.13;13.87;;;;;2.60;102456.00;;;;10407680;28;20740;-77
2021/01/15 12:03:41;;;;;;;15.43;11.63;;;;;2.60;102466.00;;;;10427511;28;20654;-77
2021/01/15 12:08:43;;;;;;;18.33;12.00;;;;;2.60;102458.00;;;;10388129;28;20213;-77
2021/01/15 12:13:45;;;;;;;19.00;13.67;;;;;2.60;102458.00;;;;10413623;28;20269;-77
2021/01/15 12:18:46;;;;;;;19.17;13.20;;;;;2.70;102465.00;;;;10415250;28;20254;-77
2021/01/15 12:23:48;;;;;;;21.10;13.57;;;;;2.70;102448.00;;;;10402350;28;20195;-77
2021/01/15 12:28:54;;;;;;;15.67;11.23;;;;;2.80;102451.00;;;;10436670;28;20204;-77
2021/01/15 12:33:56;;;;;;;17.07;12.50;;;;;2.80;102447.00;;;;10427153;28;20218;-77
2021/01/15 12:38:58;;;;;;;19.77;12.80;;;;;2.80;102459.00;;;;10441013;28;20195;-77
2021/01/15 12:44:02;;;;;;;19.37;11.73;;;;;3.00;102444.00;;;;10408111;28;20261;-77
2021/01/15 12:49:03;;;;;;;17.83;11.97;;;;;3.00;102444.00;;;;10443649;28;20194;-77
2021/01/15 12:54:05;;;;;;;14.77;11.60;;;;;3.10;102440.00;;;;10453295;28;20281;-77
2021/01/15 12:59:06;;;;;;;14.47;10.73;;;;;3.10;102442.00;;;;10423284;28;20199;-77
2021/01/15 13:04:09;;;;;;;16.70;11.47;;;;;3.10;102441.00;;;;10429488;28;20198;-77
2021/01/15 13:09:10;;;;;;;15.03;10.73;;;;;3.10;102439.00;;;;10441339;28;20250;-77
2021/01/15 13:14:12;;;;;;;15.03;10.40;;;;;3.20;102432.00;;;;10422569;28;20598;-77
2021/01/15 13:19:14;;;;;;;16.03;11.00;;;;;3.20;102439.00;;;;10457355;28;20195;-77
2021/01/15 13:24:15;;;;;;;15.57;10.73;;;;;3.10;102450.00;;;;10454615;28;20599;-77
2021/01/15 13:29:16;;;;;;;14.83;11.20;;;;;3.00;102440.00;;;;10427523;28;20206;-77
2021/01/15 13:34:18;;;;;;;15.97;10.73;;;;;2.90;102443.00;;;;10425631;28;20214;-77
2021/01/15 13:39:19;;;;;;;15.63;10.83;;;;;2.80;102439.00;;;;10427668;28;20198;-77
2021/01/15 13:44:25;;;;;;;15.93;10.97;;;;;2.80;102444.00;;;;10426315;28;20219;-78
2021/01/15 13:49:27;;;;;;;15.77;11.10;;;;;2.90;102438.00;;;;10452435;28;20194;-78
2021/01/15 13:54:28;;;;;;;13.90;10.67;;;;;2.90;102443.00;;;;10424772;28;20206;-77
2021/01/15 13:59:29;;;;;;;18.47;10.60;;;;;2.90;102444.00;;;;10439587;28;20194;-77
2021/01/15 14:04:30;;;;;;;13.40;8.93;;;;;3.00;102450.00;;;;10444860;28;20191;-77
2021/01/15 14:09:32;;;;;;;16.00;10.83;;;;;3.00;102446.00;;;;10425493;28;20194;-77
2021/01/15 14:14:34;;;;;;;14.97;10.87;;;;;3.00;102447.00;;;;10419271;28;20269;-77
2021/01/15 14:19:35;;;;;;;14.77;10.47;;;;;3.00;102440.00;;;;10425090;28;20194;-77
2021/01/15 14:24:37;;;;;;;13.10;10.10;;;;;3.00;102447.00;;;;10442212;28;20253;-77
2021/01/15 14:29:38;;;;;;;16.73;10.73;;;;;3.00;102450.00;;;;10398707;28;20249;-77
2021/01/15 14:34:39;;;;;;;15.50;10.03;;;;;2.90;102449.00;;;;10435433;28;20283;-77
2021/01/15 14:39:41;;;;;;;17.10;10.37;;;;;2.90;102459.00;;;;10423725;28;20194;-77
2021/01/15 14:44:42;;;;;;;17.33;11.40;;;;;2.80;102461.00;;;;10455564;28;20222;-78
2021/01/15 14:49:44;;;;;;;20.87;12.20;;;;;2.70;102463.00;;;;10438916;28;20194;-78
2021/01/15 14:54:45;;;;;;;14.70;11.17;;;;;2.70;102456.00;;;;10398419;28;20293;-78
2021/01/15 14:59:47;;;;;;;18.67;10.80;;;;;2.60;102462.00;;;;10424904;28;20190;-77
2021/01/15 15:04:54;;;;;;;19.73;11.87;;;;;2.60;102469.00;;;;10407692;28;20195;-78
2021/01/15 15:09:55;;;;;;;17.07;12.10;;;;;2.50;102464.00;;;;10432609;28;20261;-78
2021/01/15 15:14:57;;;;;;;17.77;11.17;;;;;2.50;102470.00;;;;10435751;28;20302;-78
2021/01/15 15:19:58;;;;;;;17.93;12.33;;;;;2.40;102471.00;;;;10436829;28;20206;-77
2021/01/15 15:25:04;;;;;;;24.40;12.13;;;;;2.30;102477.00;;;;10431672;28;20187;-77
2021/01/15 15:30:06;;;;;;;19.00;12.60;;;;;2.30;102480.00;;;;10417951;28;20200;-77
2021/01/15 15:35:08;;;;;;;17.90;13.07;;;;;2.20;102483.00;;;;10478901;28;20209;-78
2021/01/15 15:40:10;;;;;;;17.93;12.27;;;;;2.10;102480.00;;;;10481068;28;20664;-78
2021/01/15 15:45:12;;;;;;;21.10;12.80;;;;;2.10;102482.00;;;;10464808;28;20733;-79
2021/01/15 15:50:15;;;;;;;18.50;13.30;;;;;2.00;102477.00;;;;10463683;28;20189;-77
2021/01/15 15:55:16;;;;;;;21.33;13.00;;;;;1.90;102487.00;;;;10445648;28;20217;-77
2021/01/15 16:00:18;;;;;;;25.93;14.10;;;;;1.80;102504.00;;;;10472214;28;20263;-78
2021/01/15 16:05:20;;;;;;;25.57;15.97;;;;;1.80;102511.00;;;;10389482;28;20194;-78
2021/01/15 16:10:21;;;;;;;21.43;12.77;;;;;1.80;102493.00;;;;10425049;28;20718;-78
2021/01/15 16:15:23;;;;;;;25.37;16.57;;;;;1.70;102503.00;;;;10429230;28;20272;-77
2021/01/15 16:20:24;;;;;;;22.37;14.63;;;;;1.70;102503.00;;;;10429676;28;20202;-78
2021/01/15 16:25:27;;;;;;;22.00;14.53;;;;;1.60;102504.00;;;;10397415;28;20217;-78
2021/01/15 16:30:28;;;;;;;27.53;14.73;;;;;1.60;102495.00;;;;10389746;28;20191;-77
2021/01/15 16:35:30;;;;;;;23.03;14.17;;;;;1.50;102501.00;;;;10406100;28;20211;-78
2021/01/15 16:40:32;;;;;;;24.90;14.17;;;;;1.50;102498.00;;;;10422336;28;20269;-78
2021/01/15 16:45:33;;;;;;;25.97;13.97;;;;;1.50;102510.00;;;;10415854;28;20782;-78
2021/01/15 16:50:37;;;;;;;30.33;14.63;;;;;1.50;102517.00;;;;10420919;28;20202;-77
2021/01/15 16:55:39;;;;;;;27.97;16.83;;;;;1.50;102516.00;;;;10462410;28;20268;-78
2021/01/15 17:00:41;;;;;;;24.90;15.77;;;;;1.50;102524.00;;;;10419153;28;20229;-78
2021/01/15 17:05:43;;;;;;;25.17;15.97;;;;;1.50;102526.00;;;;10411000;28;20223;-78
2021/01/15 17:10:44;;;;;;;24.53;15.93;;;;;1.50;102531.00;;;;10461727;28;20563;-78
2021/01/15 17:15:45;;;;;;;23.60;15.17;;;;;1.40;102537.00;;;;10385336;28;20684;-78
2021/01/15 17:20:49;;;;;;;26.77;17.07;;;;;1.40;102533.00;;;;10407332;28;20191;-78
2021/01/15 17:25:51;;;;;;;36.03;19.37;;;;;1.40;102532.00;;;;10420224;28;20194;-78
2021/01/15 17:30:52;;;;;;;35.40;22.17;;;;;1.40;102535.00;;;;10427651;28;20198;-78
2021/01/15 17:35:53;;;;;;;24.67;15.60;;;;;1.40;102541.00;;;;10434772;28;20253;-78
2021/01/15 17:40:55;;;;;;;24.90;16.30;;;;;1.40;102544.00;;;;10410318;28;20522;-78
2021/01/15 17:45:56;;;;;;;29.07;17.00;;;;;1.40;102548.00;;;;10444013;28;20210;-78
2021/01/15 17:50:57;;;;;;;27.17;17.30;;;;;1.40;102543.00;;;;10399596;28;20217;-78
2021/01/15 17:55:59;;;;;;;37.47;20.60;;;;;1.30;102550.00;;;;10427361;28;20210;-78
2021/01/15 18:01:03;;;;;;;26.37;16.43;;;;;1.30;102539.00;;;;10426903;28;20205;-78
2021/01/15 18:06:04;;;;;;;31.53;16.73;;;;;1.30;102551.00;;;;10415198;28;20666;-78
2021/01/15 18:11:08;;;;;;;32.27;21.43;;;;;1.30;102552.00;;;;10423060;28;20216;-78
2021/01/15 18:16:10;;;;;;;30.60;17.33;;;;;1.30;102538.00;;;;10435792;28;20213;-78
2021/01/15 18:21:16;;;;;;;28.63;17.63;;;;;1.30;102545.00;;;;10418543;28;20195;-78
2021/01/15 18:26:17;;;;;;;37.23;23.17;;;;;1.30;102556.00;;;;10417960;28;20191;-78
2021/01/15 18:31:18;;;;;;;23.07;14.97;;;;;1.40;102555.00;;;;10418122;28;20225;-78
2021/01/15 18:36:23;;;;;;;25.60;15.67;;;;;1.40;102564.00;;;;10408258;28;20233;-78
2021/01/15 18:41:24;;;;;;;25.53;16.27;;;;;1.40;102562.00;;;;10425977;28;20202;-78
2021/01/15 18:46:26;;;;;;;26.23;16.87;;;;;1.30;102562.00;;;;10443741;28;20214;-78
2021/01/15 18:51:28;;;;;;;26.23;16.47;;;;;1.30;102563.00;;;;10420135;28;20274;-78
2021/01/15 18:56:29;;;;;;;30.33;18.90;;;;;1.30;102559.00;;;;10428527;28;20204;-78
2021/01/15 19:01:30;;;;;;;25.47;16.23;;;;;1.30;102566.00;;;;10394260;28;20199;-78
2021/01/15 19:06:33;;;;;;;29.87;17.33;;;;;1.30;102568.00;;;;10408404;28;20186;-78
2021/01/15 19:11:38;;;;;;;29.23;17.93;;;;;1.30;102564.00;;;;10421529;28;20241;-78
2021/01/15 19:16:43;;;;;;;28.43;17.50;;;;;1.30;102567.00;;;;10399646;28;20208;-78
2021/01/15 19:21:49;;;;;;;34.63;18.33;;;;;1.30;102571.00;;;;10435366;28;20196;-78
2021/01/15 19:26:51;;;;;;;34.40;19.13;;;;;1.30;102574.00;;;;10440920;28;20735;-78
2021/01/15 19:31:53;;;;;;;32.17;19.60;;;;;1.30;102576.00;;;;10420919;28;20199;-78
2021/01/15 19:36:55;;;;;;;36.30;21.23;;;;;1.30;102560.00;;;;10417426;28;20190;-78
2021/01/15 19:41:57;;;;;;;33.77;21.43;;;;;1.30;102563.00;;;;10441086;28;20198;-78
2021/01/15 19:46:59;;;;;;;32.20;19.70;;;;;1.30;102567.00;;;;10428021;28;20569;-77
2021/01/15 19:52:02;;;;;;;37.17;19.80;;;;;1.30;102569.00;;;;10439879;28;20808;-78
2021/01/15 19:57:04;;;;;;;39.13;23.33;;;;;1.20;102568.00;;;;10456176;28;20208;-78
2021/01/15 20:02:06;;;;;;;36.17;23.13;;;;;1.20;102577.00;;;;10433768;28;20566;-78
2021/01/15 20:07:08;;;;;;;32.87;21.70;;;;;1.30;102582.00;;;;10437496;28;20194;-78
2021/01/15 20:12:09;;;;;;;33.87;21.73;;;;;1.20;102583.00;;;;10383131;28;20203;-78
2021/01/15 20:17:10;;;;;;;32.87;21.43;;;;;1.20;102587.00;;;;10396838;28;20194;-78
2021/01/15 20:22:12;;;;;;;35.47;22.33;;;;;1.20;102595.00;;;;10441686;28;20194;-78
2021/01/15 20:27:13;;;;;;;33.97;22.37;;;;;1.20;102581.00;;;;10456935;28;20213;-78
2021/01/15 20:32:14;;;;;;;39.13;22.70;;;;;1.20;102587.00;;;;10423700;28;20716;-78
2021/01/15 20:37:17;;;;;;;38.77;22.57;;;;;1.20;102590.00;;;;10400103;28;20197;-78
2021/01/15 20:42:18;;;;;;;33.63;21.30;;;;;1.10;102589.00;;;;10439043;28;20241;-78
2021/01/15 20:47:19;;;;;;;33.20;20.70;;;;;1.20;102593.00;;;;10426615;28;20210;-78
2021/01/15 20:52:22;;;;;;;33.73;20.70;;;;;1.20;102587.00;;;;10448534;28;20206;-78
2021/01/15 20:57:23;;;;;;;32.30;20.33;;;;;1.20;102598.00;;;;10449073;28;20187;-78
2021/01/15 21:02:25;;;;;;;35.00;19.77;;;;;1.10;102611.00;;;;10410663;28;20202;-78
2021/01/15 21:07:27;;;;;;;32.87;19.30;;;;;1.20;102607.00;;;;10410166;28;20622;-78
2021/01/15 21:12:28;;;;;;;28.73;19.00;;;;;1.20;102613.00;;;;10429966;28;20202;-78
2021/01/15 21:17:30;;;;;;;33.77;20.20;;;;;1.20;102613.00;;;;10430590;28;20203;-78
2021/01/15 21:22:31;;;;;;;33.60;19.20;;;;;1.20;102603.00;;;;10422442;28;20225;-78
2021/01/15 21:27:35;;;;;;;31.60;19.63;;;;;1.20;102605.00;;;;10434932;28;20221;-78
2021/01/15 21:32:43;;;;;;;31.73;20.83;;;;;1.20;102600.00;;;;10376187;28;20207;-78
2021/01/15 21:37:54;;;;;;;34.47;20.43;;;;;1.20;102599.00;;;;10428332;28;20343;-78
2021/01/15 21:42:55;;;;;;;28.03;18.80;;;;;1.10;102590.00;;;;10458286;28;20277;-78
2021/01/15 21:47:57;;;;;;;29.10;19.53;;;;;1.20;102595.00;;;;10404969;28;20206;-78
2021/01/15 21:52:59;;;;;;;27.53;17.83;;;;;1.10;102598.00;;;;10405324;28;20265;-78
2021/01/15 21:58:09;;;;;;;28.23;17.63;;;;;1.10;102604.00;;;;10400440;28;20228;-78
2021/01/15 22:03:10;;;;;;;27.50;17.87;;;;;1.10;102597.00;;;;10423958;28;20573;-78
2021/01/15 22:08:13;;;;;;;29.53;18.70;;;;;1.10;102592.00;;;;10453870;28;20190;-78
2021/01/15 22:13:33;;;;;;;29.93;18.47;;;;;1.10;102587.00;;;;10447354;28;20198;-78
2021/01/15 22:18:34;;;;;;;28.70;17.23;;;;;1.10;102592.00;;;;10426363;28;20202;-78
2021/01/15 22:23:37;;;;;;;28.93;18.10;;;;;1.10;102586.00;;;;10424074;28;20197;-77
2021/01/15 22:28:39;;;;;;;30.17;18.17;;;;;1.10;102580.00;;;;10420174;28;20217;-78
2021/01/15 22:33:41;;;;;;;29.30;18.53;;;;;1.00;102575.00;;;;10419327;28;20526;-78
2021/01/15 22:38:43;;;;;;;30.43;18.40;;;;;1.00;102568.00;;;;10425621;28;20190;-78
2021/01/15 22:43:46;;;;;;;29.33;18.10;;;;;1.10;102580.00;;;;10442694;28;20229;-79
2021/01/15 22:48:48;;;;;;;30.53;17.20;;;;;1.10;102582.00;;;;10419981;28;20665;-79
2021/01/15 22:53:50;;;;;;;32.30;19.20;;;;;1.10;102575.00;;;;10442816;28;20284;-78
2021/01/15 22:58:52;;;;;;;27.13;15.73;;;;;1.10;102569.00;;;;10412478;28;20230;-78
2021/01/15 23:03:53;;;;;;;25.83;15.53;;;;;1.10;102569.00;;;;10447002;28;20248;-78
2021/01/15 23:08:55;;;;;;;28.33;16.93;;;;;1.10;102571.00;;;;10428797;28;20194;-78
2021/01/15 23:13:56;;;;;;;25.80;17.07;;;;;1.10;102559.00;;;;10419148;28;20213;-78
2021/01/15 23:18:58;;;;;;;24.77;16.00;;;;;1.10;102559.00;;;;10408992;28;20194;-79
2021/01/15 23:24:02;;;;;;;24.43;16.30;;;;;1.10;102557.00;;;;10444388;28;20194;-79
2021/01/15 23:29:03;;;;;;;26.47;15.73;;;;;1.10;102569.00;;;;10397209;28;20194;-79
2021/01/15 23:34:05;;;;;;;26.73;16.03;;;;;1.10;102561.00;;;;10405617;28;20194;-78
2021/01/15 23:39:06;;;;;;;26.53;16.17;;;;;1.10;102554.00;;;;10403753;28;20186;-79
2021/01/15 23:44:26;;;;;;;27.50;15.53;;;;;1.10;102549.00;;;;10431155;28;20218;-77
2021/01/15 23:49:27;;;;;;;26.00;16.17;;;;;1.10;102547.00;;;;10439185;28;20190;-78
2021/01/15 23:54:29;;;;;;;28.10;17.00;;;;;1.10;102536.00;;;;10407093;28;20253;-78
2021/01/15 23:59:30;;;;;;;28.30;17.53;;;;;1.10;102533.00;;;;10441440;28;20206;-79
